sensor_id;sensor_type;location;lat;lon;timestamp;pressure;altitude;pressure_sealevel;temperature;humidity
32933;BME280;19444;50.518;10.870;2024-03-29T00:02:32;94974.53;;;4.43;100.00
32933;BME280;19444;50.518;10.870;2024-03-29T00:05:28;94970.13;;;4.38;100.00
32933;BME280;19444;50.518;10.870;2024-03-29T00:08:24;94961.66;;;4.59;100.00
32933;BME280;19444;50.518;10.870;2024-03-29T00:11:20;94954.19;;;3.54;100.00
32933;BME280;19444;50.518;10.870;2024-03-29T00:14:16;94955.00;;;4.30;100.00
32933;BME280;19444;50.518;10.870;2024-03-29T00:17:12;94942.09;;;4.46;100.00
32933;BME280;19444;50.518;10.870;2024-03-29T00:20:09;94952.69;;;3.39;100.00
32933;BME280;19444;50.518;10.870;2024-03-29T00:23:05;94939.31;;;3.89;100.00
32933;BME280;19444;50.518;10.870;2024-03-29T00:26:00;94944.94;;;3.87;100.00
32933;BME280;19444;50.518;10.870;2024-03-29T00:28:56;94941.09;;;3.49;100.00
32933;BME280;19444;50.518;10.870;2024-03-29T00:31:52;94940.41;;;3.65;100.00
32933;BME280;19444;50.518;10.870;2024-03-29T00:34:50;94940.34;;;3.79;100.00
32933;BME280;19444;50.518;10.870;2024-03-29T00:37:46;94953.25;;;3.50;100.00
32933;BME280;19444;50.518;10.870;2024-03-29T00:40:42;94943.78;;;3.80;100.00
32933;BME280;19444;50.518;10.870;2024-03-29T00:43:38;94940.72;;;3.64;100.00
32933;BME280;19444;50.518;10.870;2024-03-29T00:46:34;94934.25;;;3.56;100.00
32933;BME280;19444;50.518;10.870;2024-03-29T00:49:30;94931.63;;;3.34;100.00
32933;BME280;19444;50.518;10.870;2024-03-29T00:52:26;94929.34;;;3.63;100.00
32933;BME280;19444;50.518;10.870;2024-03-29T00:55:22;94929.56;;;3.53;100.00
32933;BME280;19444;50.518;10.870;2024-03-29T00:58:17;94927.06;;;4.02;100.00
32933;BME280;19444;50.518;10.870;2024-03-29T01:01:13;94933.06;;;3.62;100.00
32933;BME280;19444;50.518;10.870;2024-03-29T01:04:10;94923.84;;;3.82;100.00
32933;BME280;19444;50.518;10.870;2024-03-29T01:07:06;94926.22;;;4.15;100.00
32933;BME280;19444;50.518;10.870;2024-03-29T01:10:03;94931.13;;;3.32;100.00
32933;BME280;19444;50.518;10.870;2024-03-29T01:12:59;94942.28;;;3.42;100.00
32933;BME280;19444;50.518;10.870;2024-03-29T01:15:54;94943.28;;;3.55;100.00
32933;BME280;19444;50.518;10.870;2024-03-29T01:18:50;94946.16;;;3.59;100.00
32933;BME280;19444;50.518;10.870;2024-03-29T01:21:48;94944.09;;;3.78;100.00
32933;BME280;19444;50.518;10.870;2024-03-29T01:24:44;94955.16;;;3.80;100.00
32933;BME280;19444;50.518;10.870;2024-03-29T01:27:40;94948.47;;;3.38;100.00
32933;BME280;19444;50.518;10.870;2024-03-29T01:30:35;94944.16;;;3.42;100.00
32933;BME280;19444;50.518;10.870;2024-03-29T01:33:32;94967.28;;;3.00;100.00
32933;BME280;19444;50.518;10.870;2024-03-29T01:36:29;94946.31;;;3.62;100.00
32933;BME280;19444;50.518;10.870;2024-03-29T01:39:25;94939.69;;;3.74;100.00
32933;BME280;19444;50.518;10.870;2024-03-29T01:42:26;94933.84;;;3.63;100.00
32933;BME280;19444;50.518;10.870;2024-03-29T01:45:22;94934.75;;;3.36;100.00
32933;BME280;19444;50.518;10.870;2024-03-29T01:48:20;94925.38;;;3.52;100.00
32933;BME280;19444;50.518;10.870;2024-03-29T01:51:17;94922.72;;;3.52;100.00
32933;BME280;19444;50.518;10.870;2024-03-29T01:54:13;94916.53;;;3.57;100.00
32933;BME280;19444;50.518;10.870;2024-03-29T01:57:10;94919.31;;;4.05;100.00
32933;BME280;19444;50.518;10.870;2024-03-29T02:00:07;94921.63;;;3.76;100.00
32933;BME280;19444;50.518;10.870;2024-03-29T02:03:05;94921.06;;;3.87;100.00
32933;BME280;19444;50.518;10.870;2024-03-29T02:06:06;94921.28;;;3.99;100.00
32933;BME280;19444;50.518;10.870;2024-03-29T02:09:02;94929.81;;;4.19;100.00
32933;BME280;19444;50.518;10.870;2024-03-29T02:11:59;94941.47;;;4.40;100.00
32933;BME280;19444;50.518;10.870;2024-03-29T02:14:55;94918.53;;;4.44;100.00
32933;BME280;19444;50.518;10.870;2024-03-29T02:17:51;94905.09;;;4.32;100.00
32933;BME280;19444;50.518;10.870;2024-03-29T02:20:47;94906.28;;;4.74;100.00
32933;BME280;19444;50.518;10.870;2024-03-29T02:23:48;94901.75;;;4.57;100.00
32933;BME280;19444;50.518;10.870;2024-03-29T02:26:46;94889.16;;;4.32;100.00
32933;BME280;19444;50.518;10.870;2024-03-29T02:29:43;94892.97;;;4.48;100.00
32933;BME280;19444;50.518;10.870;2024-03-29T02:32:38;94913.69;;;4.46;100.00
32933;BME280;19444;50.518;10.870;2024-03-29T02:35:34;94912.22;;;4.71;100.00
32933;BME280;19444;50.518;10.870;2024-03-29T02:38:30;94905.78;;;4.64;100.00
32933;BME280;19444;50.518;10.870;2024-03-29T02:41:26;94920.94;;;4.72;100.00
32933;BME280;19444;50.518;10.870;2024-03-29T02:44:22;94909.78;;;4.44;100.00
32933;BME280;19444;50.518;10.870;2024-03-29T02:47:18;94884.59;;;4.81;100.00
32933;BME280;19444;50.518;10.870;2024-03-29T02:50:16;94864.09;;;4.55;100.00
32933;BME280;19444;50.518;10.870;2024-03-29T02:53:12;94860.66;;;4.46;100.00
32933;BME280;19444;50.518;10.870;2024-03-29T02:56:08;94877.59;;;4.76;100.00
32933;BME280;19444;50.518;10.870;2024-03-29T02:59:04;94883.34;;;4.70;100.00
32933;BME280;19444;50.518;10.870;2024-03-29T03:02:00;94862.75;;;5.10;100.00
32933;BME280;19444;50.518;10.870;2024-03-29T03:04:56;94861.53;;;4.99;100.00
32933;BME280;19444;50.518;10.870;2024-03-29T03:07:52;94870.25;;;4.99;100.00
32933;BME280;19444;50.518;10.870;2024-03-29T03:11:06;94854.19;;;5.30;100.00
32933;BME280;19444;50.518;10.870;2024-03-29T03:14:02;94864.97;;;5.34;100.00
32933;BME280;19444;50.518;10.870;2024-03-29T03:16:58;94869.44;;;5.77;100.00
32933;BME280;19444;50.518;10.870;2024-03-29T03:19:54;94862.50;;;6.02;100.00
32933;BME280;19444;50.518;10.870;2024-03-29T03:22:53;94844.38;;;5.86;100.00
32933;BME280;19444;50.518;10.870;2024-03-29T03:25:58;94847.25;;;5.55;100.00
32933;BME280;19444;50.518;10.870;2024-03-29T03:28:54;94852.81;;;5.88;100.00
32933;BME280;19444;50.518;10.870;2024-03-29T03:31:50;94841.94;;;5.64;100.00
32933;BME280;19444;50.518;10.870;2024-03-29T03:34:45;94835.94;;;5.84;100.00
32933;BME280;19444;50.518;10.870;2024-03-29T03:37:41;94832.22;;;5.77;100.00
32933;BME280;19444;50.518;10.870;2024-03-29T03:40:38;94835.78;;;5.98;100.00
32933;BME280;19444;50.518;10.870;2024-03-29T03:43:34;94819.69;;;6.53;100.00
32933;BME280;19444;50.518;10.870;2024-03-29T03:46:30;94834.13;;;6.73;100.00
32933;BME280;19444;50.518;10.870;2024-03-29T03:49:26;94843.47;;;6.29;100.00
32933;BME280;19444;50.518;10.870;2024-03-29T03:52:21;94855.31;;;5.93;100.00
32933;BME280;19444;50.518;10.870;2024-03-29T03:55:17;94854.41;;;5.72;100.00
32933;BME280;19444;50.518;10.870;2024-03-29T03:58:13;94850.34;;;5.75;100.00
32933;BME280;19444;50.518;10.870;2024-03-29T04:01:09;94851.09;;;5.84;100.00
32933;BME280;19444;50.518;10.870;2024-03-29T04:04:05;94854.53;;;5.93;100.00
32933;BME280;19444;50.518;10.870;2024-03-29T04:07:01;94850.81;;;5.85;100.00
32933;BME280;19444;50.518;10.870;2024-03-29T04:09:57;94847.06;;;5.86;100.00
32933;BME280;19444;50.518;10.870;2024-03-29T04:12:53;94837.06;;;5.75;100.00
32933;BME280;19444;50.518;10.870;2024-03-29T04:15:49;94837.03;;;5.83;100.00
32933;BME280;19444;50.518;10.870;2024-03-29T04:18:45;94839.44;;;6.23;100.00
32933;BME280;19444;50.518;10.870;2024-03-29T04:21:41;94852.59;;;6.49;100.00
32933;BME280;19444;50.518;10.870;2024-03-29T04:24:37;94856.31;;;6.56;100.00
32933;BME280;19444;50.518;10.870;2024-03-29T04:27:33;94857.69;;;6.63;100.00
32933;BME280;19444;50.518;10.870;2024-03-29T04:30:29;94851.66;;;6.15;100.00
32933;BME280;19444;50.518;10.870;2024-03-29T04:33:25;94864.41;;;6.31;100.00
32933;BME280;19444;50.518;10.870;2024-03-29T04:36:21;94867.66;;;6.45;100.00
32933;BME280;19444;50.518;10.870;2024-03-29T04:39:17;94859.63;;;6.24;100.00
32933;BME280;19444;50.518;10.870;2024-03-29T04:42:13;94874.94;;;6.27;100.00
32933;BME280;19444;50.518;10.870;2024-03-29T04:45:10;94887.03;;;6.07;100.00
32933;BME280;19444;50.518;10.870;2024-03-29T04:48:07;94892.00;;;6.26;100.00
32933;BME280;19444;50.518;10.870;2024-03-29T04:51:03;94899.56;;;6.45;100.00
32933;BME280;19444;50.518;10.870;2024-03-29T04:53:59;94915.78;;;6.22;100.00
32933;BME280;19444;50.518;10.870;2024-03-29T04:56:55;94897.59;;;6.33;100.00
32933;BME280;19444;50.518;10.870;2024-03-29T04:59:51;94899.13;;;6.43;100.00
32933;BME280;19444;50.518;10.870;2024-03-29T05:02:47;94904.38;;;6.22;100.00
32933;BME280;19444;50.518;10.870;2024-03-29T05:05:43;94906.03;;;6.35;100.00
32933;BME280;19444;50.518;10.870;2024-03-29T05:08:39;94908.03;;;6.00;100.00
32933;BME280;19444;50.518;10.870;2024-03-29T05:11:35;94921.13;;;6.14;100.00
32933;BME280;19444;50.518;10.870;2024-03-29T05:14:31;94932.41;;;6.49;100.00
32933;BME280;19444;50.518;10.870;2024-03-29T05:17:27;94931.28;;;6.20;100.00
32933;BME280;19444;50.518;10.870;2024-03-29T05:20:23;94940.78;;;6.30;100.00
32933;BME280;19444;50.518;10.870;2024-03-29T05:23:19;94945.88;;;6.52;100.00
32933;BME280;19444;50.518;10.870;2024-03-29T05:26:15;94937.81;;;6.32;100.00
32933;BME280;19444;50.518;10.870;2024-03-29T05:29:11;94947.78;;;6.43;100.00
32933;BME280;19444;50.518;10.870;2024-03-29T05:32:07;94946.41;;;6.75;100.00
32933;BME280;19444;50.518;10.870;2024-03-29T05:35:03;94953.47;;;6.33;100.00
32933;BME280;19444;50.518;10.870;2024-03-29T05:37:59;94926.84;;;6.42;100.00
32933;BME280;19444;50.518;10.870;2024-03-29T05:40:55;94918.81;;;6.50;100.00
32933;BME280;19444;50.518;10.870;2024-03-29T05:43:51;94914.53;;;6.58;100.00
32933;BME280;19444;50.518;10.870;2024-03-29T05:46:47;94902.94;;;6.24;100.00
32933;BME280;19444;50.518;10.870;2024-03-29T05:49:44;94891.94;;;6.35;100.00
32933;BME280;19444;50.518;10.870;2024-03-29T05:52:40;94883.94;;;6.05;100.00
32933;BME280;19444;50.518;10.870;2024-03-29T05:55:36;94889.50;;;6.12;100.00
32933;BME280;19444;50.518;10.870;2024-03-29T05:58:33;94877.59;;;6.27;100.00
32933;BME280;19444;50.518;10.870;2024-03-29T06:01:29;94890.00;;;6.52;100.00
32933;BME280;19444;50.518;10.870;2024-03-29T06:04:26;94905.28;;;6.64;100.00
32933;BME280;19444;50.518;10.870;2024-03-29T06:07:28;94903.44;;;6.85;100.00
32933;BME280;19444;50.518;10.870;2024-03-29T06:10:25;94921.41;;;6.68;100.00
32933;BME280;19444;50.518;10.870;2024-03-29T06:13:21;94921.97;;;7.03;100.00
32933;BME280;19444;50.518;10.870;2024-03-29T06:16:45;94938.81;;;7.16;100.00
32933;BME280;19444;50.518;10.870;2024-03-29T06:20:05;94953.31;;;7.06;100.00
32933;BME280;19444;50.518;10.870;2024-03-29T06:23:01;94963.31;;;6.79;100.00
32933;BME280;19444;50.518;10.870;2024-03-29T06:25:57;94969.78;;;6.70;100.00
32933;BME280;19444;50.518;10.870;2024-03-29T06:28:53;94973.84;;;6.67;100.00
32933;BME280;19444;50.518;10.870;2024-03-29T06:31:49;94981.69;;;6.64;100.00
32933;BME280;19444;50.518;10.870;2024-03-29T06:34:45;94986.19;;;6.72;100.00
32933;BME280;19444;50.518;10.870;2024-03-29T06:37:41;94995.13;;;6.67;100.00
32933;BME280;19444;50.518;10.870;2024-03-29T06:40:38;94991.72;;;6.58;100.00
32933;BME280;19444;50.518;10.870;2024-03-29T06:43:33;94994.16;;;6.80;100.00
32933;BME280;19444;50.518;10.870;2024-03-29T06:46:29;94993.00;;;6.52;100.00
32933;BME280;19444;50.518;10.870;2024-03-29T06:49:25;94992.25;;;6.43;100.00
32933;BME280;19444;50.518;10.870;2024-03-29T06:52:21;94987.41;;;6.36;100.00
32933;BME280;19444;50.518;10.870;2024-03-29T06:55:17;94987.69;;;6.52;100.00
32933;BME280;19444;50.518;10.870;2024-03-29T06:58:13;94994.09;;;6.60;100.00
32933;BME280;19444;50.518;10.870;2024-03-29T07:01:09;94989.66;;;6.72;100.00
32933;BME280;19444;50.518;10.870;2024-03-29T07:04:05;94987.44;;;6.27;100.00
32933;BME280;19444;50.518;10.870;2024-03-29T07:07:01;94977.00;;;6.14;100.00
32933;BME280;19444;50.518;10.870;2024-03-29T07:09:57;94979.00;;;6.17;100.00
32933;BME280;19444;50.518;10.870;2024-03-29T07:12:53;94989.00;;;6.28;100.00
32933;BME280;19444;50.518;10.870;2024-03-29T07:15:52;94972.19;;;6.45;100.00
32933;BME280;19444;50.518;10.870;2024-03-29T07:18:48;94978.50;;;6.41;100.00
32933;BME280;19444;50.518;10.870;2024-03-29T07:21:45;94972.69;;;6.39;100.00
32933;BME280;19444;50.518;10.870;2024-03-29T07:24:41;94969.47;;;6.63;100.00
32933;BME280;19444;50.518;10.870;2024-03-29T07:27:37;94971.63;;;6.78;100.00
32933;BME280;19444;50.518;10.870;2024-03-29T07:30:36;94966.28;;;6.78;100.00
32933;BME280;19444;50.518;10.870;2024-03-29T07:33:34;94975.50;;;6.42;100.00
32933;BME280;19444;50.518;10.870;2024-03-29T07:36:30;94964.53;;;6.82;100.00
32933;BME280;19444;50.518;10.870;2024-03-29T07:39:31;94959.72;;;6.75;100.00
32933;BME280;19444;50.518;10.870;2024-03-29T07:42:27;94965.75;;;6.55;100.00
32933;BME280;19444;50.518;10.870;2024-03-29T07:45:23;94963.75;;;6.81;100.00
32933;BME280;19444;50.518;10.870;2024-03-29T07:48:19;94961.97;;;6.94;100.00
32933;BME280;19444;50.518;10.870;2024-03-29T07:51:15;94961.19;;;6.94;100.00
32933;BME280;19444;50.518;10.870;2024-03-29T07:54:11;94955.00;;;7.10;100.00
32933;BME280;19444;50.518;10.870;2024-03-29T07:57:06;94959.81;;;7.38;100.00
32933;BME280;19444;50.518;10.870;2024-03-29T08:00:05;94953.69;;;7.17;100.00
32933;BME280;19444;50.518;10.870;2024-03-29T08:03:01;94951.06;;;7.37;100.00
32933;BME280;19444;50.518;10.870;2024-03-29T08:06:00;94950.53;;;7.65;100.00
32933;BME280;19444;50.518;10.870;2024-03-29T08:08:57;94953.31;;;7.89;100.00
32933;BME280;19444;50.518;10.870;2024-03-29T08:11:53;94934.91;;;7.76;100.00
32933;BME280;19444;50.518;10.870;2024-03-29T08:14:49;94939.38;;;7.51;100.00
32933;BME280;19444;50.518;10.870;2024-03-29T08:17:45;94943.41;;;7.90;100.00
32933;BME280;19444;50.518;10.870;2024-03-29T08:20:42;94932.16;;;8.05;100.00
32933;BME280;19444;50.518;10.870;2024-03-29T08:23:41;94925.88;;;7.89;100.00
32933;BME280;19444;50.518;10.870;2024-03-29T08:26:40;94919.09;;;7.91;100.00
32933;BME280;19444;50.518;10.870;2024-03-29T08:29:36;94903.97;;;8.41;100.00
32933;BME280;19444;50.518;10.870;2024-03-29T08:32:32;94907.94;;;8.22;100.00
32933;BME280;19444;50.518;10.870;2024-03-29T08:35:30;94909.56;;;8.72;100.00
32933;BME280;19444;50.518;10.870;2024-03-29T08:38:26;94907.56;;;8.45;100.00
32933;BME280;19444;50.518;10.870;2024-03-29T08:41:22;94897.44;;;8.50;100.00
32933;BME280;19444;50.518;10.870;2024-03-29T08:44:18;94893.97;;;8.38;100.00
32933;BME280;19444;50.518;10.870;2024-03-29T08:47:14;94872.94;;;8.24;100.00
32933;BME280;19444;50.518;10.870;2024-03-29T08:50:10;94875.53;;;8.45;100.00
32933;BME280;19444;50.518;10.870;2024-03-29T08:53:07;94865.84;;;8.65;100.00
32933;BME280;19444;50.518;10.870;2024-03-29T08:56:04;94858.47;;;8.98;100.00
32933;BME280;19444;50.518;10.870;2024-03-29T08:59:01;94853.72;;;8.67;100.00
32933;BME280;19444;50.518;10.870;2024-03-29T09:02:04;94858.84;;;8.48;100.00
32933;BME280;19444;50.518;10.870;2024-03-29T09:05:02;94876.84;;;9.00;100.00
32933;BME280;19444;50.518;10.870;2024-03-29T09:07:58;94872.03;;;9.05;100.00
32933;BME280;19444;50.518;10.870;2024-03-29T09:10:54;94868.22;;;9.19;100.00
32933;BME280;19444;50.518;10.870;2024-03-29T09:13:50;94871.25;;;9.73;100.00
32933;BME280;19444;50.518;10.870;2024-03-29T09:16:46;94862.34;;;9.69;100.00
32933;BME280;19444;50.518;10.870;2024-03-29T09:19:43;94852.41;;;9.54;100.00
32933;BME280;19444;50.518;10.870;2024-03-29T09:22:39;94859.63;;;10.25;100.00
32933;BME280;19444;50.518;10.870;2024-03-29T09:25:39;94854.78;;;9.43;100.00
32933;BME280;19444;50.518;10.870;2024-03-29T09:28:34;94852.78;;;9.68;100.00
32933;BME280;19444;50.518;10.870;2024-03-29T09:31:32;94858.16;;;9.84;100.00
32933;BME280;19444;50.518;10.870;2024-03-29T09:34:29;94854.28;;;9.81;100.00
32933;BME280;19444;50.518;10.870;2024-03-29T09:37:27;94874.78;;;9.21;100.00
32933;BME280;19444;50.518;10.870;2024-03-29T09:40:23;94882.31;;;9.87;100.00
32933;BME280;19444;50.518;10.870;2024-03-29T09:43:19;94894.91;;;9.71;100.00
32933;BME280;19444;50.518;10.870;2024-03-29T09:46:17;94896.59;;;9.23;100.00
32933;BME280;19444;50.518;10.870;2024-03-29T09:49:17;94908.25;;;9.43;100.00
32933;BME280;19444;50.518;10.870;2024-03-29T09:52:13;94911.19;;;9.26;100.00
32933;BME280;19444;50.518;10.870;2024-03-29T09:55:10;94931.03;;;9.12;100.00
32933;BME280;19444;50.518;10.870;2024-03-29T09:58:12;94941.84;;;8.92;100.00
32933;BME280;19444;50.518;10.870;2024-03-29T10:01:12;94944.69;;;9.23;100.00
32933;BME280;19444;50.518;10.870;2024-03-29T10:04:18;94956.41;;;9.19;100.00
32933;BME280;19444;50.518;10.870;2024-03-29T10:10:24;94963.41;;;9.35;100.00
32933;BME280;19444;50.518;10.870;2024-03-29T10:13:20;94962.97;;;8.84;100.00
32933;BME280;19444;50.518;10.870;2024-03-29T10:16:19;94976.09;;;8.65;100.00
32933;BME280;19444;50.518;10.870;2024-03-29T10:19:17;94980.31;;;8.54;100.00
32933;BME280;19444;50.518;10.870;2024-03-29T10:22:13;94978.78;;;8.65;100.00
32933;BME280;19444;50.518;10.870;2024-03-29T10:25:10;94984.28;;;9.05;100.00
32933;BME280;19444;50.518;10.870;2024-03-29T10:28:06;94976.91;;;8.78;100.00
32933;BME280;19444;50.518;10.870;2024-03-29T10:31:03;94984.94;;;8.90;100.00
32933;BME280;19444;50.518;10.870;2024-03-29T10:34:03;94985.50;;;8.38;100.00
32933;BME280;19444;50.518;10.870;2024-03-29T10:37:02;95000.91;;;8.53;100.00
32933;BME280;19444;50.518;10.870;2024-03-29T10:40:00;94996.44;;;8.45;100.00
32933;BME280;19444;50.518;10.870;2024-03-29T10:42:57;95005.72;;;8.60;100.00
32933;BME280;19444;50.518;10.870;2024-03-29T10:45:56;95006.44;;;8.48;100.00
32933;BME280;19444;50.518;10.870;2024-03-29T10:48:55;95019.56;;;8.41;100.00
32933;BME280;19444;50.518;10.870;2024-03-29T10:51:52;95018.22;;;7.93;100.00
32933;BME280;19444;50.518;10.870;2024-03-29T10:54:49;95026.28;;;8.06;100.00
32933;BME280;19444;50.518;10.870;2024-03-29T10:57:46;95023.78;;;8.21;100.00
32933;BME280;19444;50.518;10.870;2024-03-29T11:00:48;95015.81;;;8.01;100.00
32933;BME280;19444;50.518;10.870;2024-03-29T11:03:50;95021.78;;;8.18;100.00
32933;BME280;19444;50.518;10.870;2024-03-29T11:06:55;95023.75;;;8.09;100.00
32933;BME280;19444;50.518;10.870;2024-03-29T11:10:00;95030.69;;;8.22;100.00
32933;BME280;19444;50.518;10.870;2024-03-29T11:16:00;95020.19;;;8.71;100.00
32933;BME280;19444;50.518;10.870;2024-03-29T11:18:56;95017.53;;;8.96;100.00
32933;BME280;19444;50.518;10.870;2024-03-29T11:21:53;95023.63;;;8.72;100.00
32933;BME280;19444;50.518;10.870;2024-03-29T11:24:51;95011.75;;;8.36;100.00
32933;BME280;19444;50.518;10.870;2024-03-29T11:27:47;95019.38;;;8.25;100.00
32933;BME280;19444;50.518;10.870;2024-03-29T11:30:48;95021.78;;;8.18;100.00
32933;BME280;19444;50.518;10.870;2024-03-29T11:33:45;95033.59;;;8.50;100.00
32933;BME280;19444;50.518;10.870;2024-03-29T11:36:45;95017.59;;;8.63;100.00
32933;BME280;19444;50.518;10.870;2024-03-29T11:39:47;95018.59;;;8.58;100.00
32933;BME280;19444;50.518;10.870;2024-03-29T11:42:52;95018.50;;;8.67;100.00
32933;BME280;19444;50.518;10.870;2024-03-29T11:45:50;94998.28;;;8.78;100.00
32933;BME280;19444;50.518;10.870;2024-03-29T11:48:49;95001.69;;;8.66;100.00
32933;BME280;19444;50.518;10.870;2024-03-29T11:51:47;94989.25;;;8.95;100.00
32933;BME280;19444;50.518;10.870;2024-03-29T11:54:43;94980.38;;;9.15;100.00
32933;BME280;19444;50.518;10.870;2024-03-29T11:57:39;94977.78;;;8.70;100.00
32933;BME280;19444;50.518;10.870;2024-03-29T12:00:38;94971.00;;;9.33;100.00
32933;BME280;19444;50.518;10.870;2024-03-29T12:03:38;94972.47;;;9.06;100.00
32933;BME280;19444;50.518;10.870;2024-03-29T12:06:35;94962.91;;;9.58;100.00
32933;BME280;19444;50.518;10.870;2024-03-29T12:09:32;94965.88;;;9.28;100.00
32933;BME280;19444;50.518;10.870;2024-03-29T12:12:29;94970.31;;;9.77;100.00
32933;BME280;19444;50.518;10.870;2024-03-29T12:15:28;94970.75;;;9.91;100.00
32933;BME280;19444;50.518;10.870;2024-03-29T12:18:25;94958.50;;;9.78;100.00
32933;BME280;19444;50.518;10.870;2024-03-29T12:21:24;94948.41;;;9.99;100.00
32933;BME280;19444;50.518;10.870;2024-03-29T12:24:20;94937.50;;;9.64;100.00
32933;BME280;19444;50.518;10.870;2024-03-29T12:27:17;94925.25;;;9.91;100.00
32933;BME280;19444;50.518;10.870;2024-03-29T12:30:14;94918.97;;;9.99;100.00
32933;BME280;19444;50.518;10.870;2024-03-29T12:33:19;94894.28;;;10.34;100.00
32933;BME280;19444;50.518;10.870;2024-03-29T12:36:15;94899.72;;;10.37;100.00
32933;BME280;19444;50.518;10.870;2024-03-29T12:39:13;94914.63;;;9.94;100.00
32933;BME280;19444;50.518;10.870;2024-03-29T12:42:10;94916.66;;;9.97;100.00
32933;BME280;19444;50.518;10.870;2024-03-29T12:45:07;94893.50;;;9.89;100.00
32933;BME280;19444;50.518;10.870;2024-03-29T12:48:12;94911.84;;;10.19;100.00
32933;BME280;19444;50.518;10.870;2024-03-29T12:51:08;94919.59;;;10.36;100.00
32933;BME280;19444;50.518;10.870;2024-03-29T12:54:05;94916.97;;;9.96;100.00
32933;BME280;19444;50.518;10.870;2024-03-29T12:57:01;94909.03;;;10.28;100.00
32933;BME280;19444;50.518;10.870;2024-03-29T12:59:58;94884.09;;;10.11;100.00
32933;BME280;19444;50.518;10.870;2024-03-29T13:02:54;94867.72;;;10.60;100.00
32933;BME280;19444;50.518;10.870;2024-03-29T13:05:50;94878.91;;;10.62;100.00
32933;BME280;19444;50.518;10.870;2024-03-29T13:08:46;94902.72;;;10.67;100.00
32933;BME280;19444;50.518;10.870;2024-03-29T13:11:42;94915.69;;;10.81;100.00
32933;BME280;19444;50.518;10.870;2024-03-29T13:14:38;94914.72;;;10.42;100.00
32933;BME280;19444;50.518;10.870;2024-03-29T13:17:33;94905.22;;;10.60;100.00
32933;BME280;19444;50.518;10.870;2024-03-29T13:20:30;94884.03;;;10.87;100.00
32933;BME280;19444;50.518;10.870;2024-03-29T13:23:27;94898.66;;;10.89;100.00
32933;BME280;19444;50.518;10.870;2024-03-29T13:26:23;94912.13;;;10.30;100.00
32933;BME280;19444;50.518;10.870;2024-03-29T13:29:18;94906.81;;;10.45;100.00
32933;BME280;19444;50.518;10.870;2024-03-29T13:32:15;94918.63;;;10.29;100.00
32933;BME280;19444;50.518;10.870;2024-03-29T13:35:11;94920.13;;;9.86;100.00
32933;BME280;19444;50.518;10.870;2024-03-29T13:38:07;94924.66;;;9.97;100.00
32933;BME280;19444;50.518;10.870;2024-03-29T13:41:03;94945.47;;;10.04;100.00
32933;BME280;19444;50.518;10.870;2024-03-29T13:44:02;94949.25;;;10.15;100.00
32933;BME280;19444;50.518;10.870;2024-03-29T13:47:01;94961.19;;;10.06;100.00
32933;BME280;19444;50.518;10.870;2024-03-29T13:49:57;94974.53;;;9.90;100.00
32933;BME280;19444;50.518;10.870;2024-03-29T13:52:53;94986.97;;;10.38;100.00
32933;BME280;19444;50.518;10.870;2024-03-29T13:55:50;94998.34;;;10.07;100.00
32933;BME280;19444;50.518;10.870;2024-03-29T13:58:47;95005.31;;;9.84;100.00
32933;BME280;19444;50.518;10.870;2024-03-29T14:01:43;95012.25;;;9.73;100.00
32933;BME280;19444;50.518;10.870;2024-03-29T14:04:40;95015.28;;;9.71;100.00
32933;BME280;19444;50.518;10.870;2024-03-29T14:07:37;95022.63;;;9.74;100.00
32933;BME280;19444;50.518;10.870;2024-03-29T14:10:33;95021.16;;;9.77;100.00
32933;BME280;19444;50.518;10.870;2024-03-29T14:13:31;95008.47;;;9.74;100.00
32933;BME280;19444;50.518;10.870;2024-03-29T14:16:28;95017.50;;;9.69;100.00
32933;BME280;19444;50.518;10.870;2024-03-29T14:19:24;95013.13;;;9.89;100.00
32933;BME280;19444;50.518;10.870;2024-03-29T14:22:20;95021.50;;;10.15;100.00
32933;BME280;19444;50.518;10.870;2024-03-29T14:25:16;95035.41;;;10.21;100.00
32933;BME280;19444;50.518;10.870;2024-03-29T14:28:12;95030.00;;;10.45;100.00
32933;BME280;19444;50.518;10.870;2024-03-29T14:31:08;95018.63;;;10.64;100.00
32933;BME280;19444;50.518;10.870;2024-03-29T14:34:04;95014.13;;;10.52;100.00
32933;BME280;19444;50.518;10.870;2024-03-29T14:37:00;95019.31;;;10.61;100.00
32933;BME280;19444;50.518;10.870;2024-03-29T14:39:56;95020.09;;;10.77;100.00
32933;BME280;19444;50.518;10.870;2024-03-29T14:42:53;95010.78;;;10.71;100.00
32933;BME280;19444;50.518;10.870;2024-03-29T14:45:53;95002.97;;;10.66;100.00
32933;BME280;19444;50.518;10.870;2024-03-29T14:48:49;95010.66;;;10.52;100.00
32933;BME280;19444;50.518;10.870;2024-03-29T14:51:45;95009.75;;;10.32;100.00
32933;BME280;19444;50.518;10.870;2024-03-29T14:54:41;95027.38;;;10.61;100.00
32933;BME280;19444;50.518;10.870;2024-03-29T14:57:37;95021.34;;;10.36;100.00
32933;BME280;19444;50.518;10.870;2024-03-29T15:00:33;95016.16;;;10.15;100.00
32933;BME280;19444;50.518;10.870;2024-03-29T15:03:29;95019.63;;;10.04;100.00
32933;BME280;19444;50.518;10.870;2024-03-29T15:06:26;95010.69;;;10.12;100.00
32933;BME280;19444;50.518;10.870;2024-03-29T15:09:23;95003.72;;;10.35;100.00
32933;BME280;19444;50.518;10.870;2024-03-29T15:12:19;95003.28;;;10.21;100.00
32933;BME280;19444;50.518;10.870;2024-03-29T15:15:15;95012.03;;;10.46;100.00
32933;BME280;19444;50.518;10.870;2024-03-29T15:18:11;95001.06;;;10.51;100.00
32933;BME280;19444;50.518;10.870;2024-03-29T15:21:06;95000.56;;;10.61;100.00
32933;BME280;19444;50.518;10.870;2024-03-29T15:24:05;94992.28;;;11.14;100.00
32933;BME280;19444;50.518;10.870;2024-03-29T15:27:01;94989.03;;;11.39;100.00
32933;BME280;19444;50.518;10.870;2024-03-29T15:29:58;94981.91;;;11.12;100.00